Somes Bar, CA (95568)

4:01 AM PST on November 28, 2014 (GMT -0800)
RAWS SAWYERS BAR CA US | Change Station
CLOSE
Current Station
Personal Weather Station
Location: Forks Of Salmon, CA
Elevation: 2455 ft
Nearby Weather Stations

Elev 2455 ft 41.30 °N, 123.13 °W | Updated 39 minutes ago

Overcast
Overcast
42 °F
Feels Like 40 °F
N
4
Wind Variable Wind from East
Gusts 7.0 mph

Today
High -- | Low -- °F
--% Chance of Precip.
Yesterday
High -- | Low -- °F
Precip. -- in
7:17 AM 4:46 PM
Waxing Crescent, 39% visible
Pressure 30.01 in
Visibility 3.0 miles
Clouds Overcast 300 ft
Windchill 40 °F
Dew Point 35 °F
Humidity 77%
Rainfall 0.00 in
Snow Depth Not available.
UV 0 out of 12
Pollen .30 out of 12
Air Quality Not available.
Flu Activity Not available.
METAR KO86 281155Z AUTO 00000KT 3SM OVC003 03/03 A3001 RMK AO1 VSBY 1 1/4V5

More Conditions Fewer Conditions

Pressure 30.01 in
Visibility 3.0 miles
Clouds Overcast 300 ft
Windchill 40 °F
Dew Point 35 °F
Humidity 77%
Rainfall 0.00 in
Snow Depth Not available.
UV 0 out of 12
Pollen .30 out of 12
Air Quality Not available.
Flu Activity Not available.
METAR KO86 281155Z AUTO 00000KT 3SM OVC003 03/03 A3001 RMK AO1 VSBY 1 1/4V5

More Conditions Fewer Conditions

10-Day Weather Forecast

Almanac

Astronomy

Nov. 28, 2014 Rise Set
Actual Time
Civil Twilight
Nautical Twilight
Astronomical Twilight
Moon
Length of Visible Light
Length of Day
Tomorrow will be .
, % of the Moon is Illuminated

Today's Extremes

State Highs State Lows

Community

WunderPhotos

Upload Photos

1,774,198 photos uploaded!

WunderBlogs® & News

Nearby

Air Quality

  Air Quality AQ Index Pollutant
Not available.

Snow Depth

Station Depth Elevation

Earthquake Activity

City Distance Mag. Time & Date
Minimum magnitude displayed is 2.5.

Coastal Water Temperatures

Place Temperature

Nearby Weather Stations